sensor_id;sensor_type;location;lat;lon;timestamp;P1;durP1;ratioP1;P2;durP2;ratioP2
1679;SDS011;838;51.794;12.258;2023-04-12T00:01:55;9.10;;;4.60;;
1679;SDS011;838;51.794;12.258;2023-04-12T00:04:21;6.10;;;4.37;;
1679;SDS011;838;51.794;12.258;2023-04-12T00:06:51;7.27;;;4.33;;
1679;SDS011;838;51.794;12.258;2023-04-12T00:09:18;6.17;;;4.10;;
1679;SDS011;838;51.794;12.258;2023-04-12T00:11:45;6.60;;;4.10;;
1679;SDS011;838;51.794;12.258;2023-04-12T00:14:10;6.93;;;4.50;;
1679;SDS011;838;51.794;12.258;2023-04-12T00:16:36;9.90;;;4.10;;
1679;SDS011;838;51.794;12.258;2023-04-12T00:19:03;5.80;;;3.73;;
1679;SDS011;838;51.794;12.258;2023-04-12T00:21:30;6.43;;;4.37;;
1679;SDS011;838;51.794;12.258;2023-04-12T00:23:56;4.50;;;3.77;;
1679;SDS011;838;51.794;12.258;2023-04-12T00:26:22;7.93;;;4.60;;
1679;SDS011;838;51.794;12.258;2023-04-12T00:28:49;5.07;;;4.03;;
1679;SDS011;838;51.794;12.258;2023-04-12T00:31:15;9.40;;;4.40;;
1679;SDS011;838;51.794;12.258;2023-04-12T00:33:40;5.33;;;3.93;;
1679;SDS011;838;51.794;12.258;2023-04-12T00:36:06;5.43;;;4.00;;
1679;SDS011;838;51.794;12.258;2023-04-12T00:38:32;8.80;;;3.83;;
1679;SDS011;838;51.794;12.258;2023-04-12T00:40:58;7.17;;;4.53;;
1679;SDS011;838;51.794;12.258;2023-04-12T00:43:24;8.47;;;4.77;;
1679;SDS011;838;51.794;12.258;2023-04-12T00:45:51;7.83;;;4.83;;
1679;SDS011;838;51.794;12.258;2023-04-12T00:48:21;8.03;;;5.00;;
1679;SDS011;838;51.794;12.258;2023-04-12T00:50:48;6.20;;;4.50;;
1679;SDS011;838;51.794;12.258;2023-04-12T00:53:15;6.43;;;5.00;;
1679;SDS011;838;51.794;12.258;2023-04-12T00:55:43;8.80;;;4.80;;
1679;SDS011;838;51.794;12.258;2023-04-12T00:58:09;10.30;;;4.90;;
1679;SDS011;838;51.794;12.258;2023-04-12T01:00:36;7.53;;;4.77;;
1679;SDS011;838;51.794;12.258;2023-04-12T01:03:01;5.73;;;4.70;;
1679;SDS011;838;51.794;12.258;2023-04-12T01:05:29;7.03;;;4.80;;
1679;SDS011;838;51.794;12.258;2023-04-12T01:11:01;8.57;;;5.07;;
1679;SDS011;838;51.794;12.258;2023-04-12T01:16:31;8.50;;;6.03;;
1679;SDS011;838;51.794;12.258;2023-04-12T01:19:01;8.90;;;5.67;;
1679;SDS011;838;51.794;12.258;2023-04-12T01:24:25;7.40;;;5.87;;
1679;SDS011;838;51.794;12.258;2023-04-12T01:27:00;8.80;;;6.30;;
1679;SDS011;838;51.794;12.258;2023-04-12T01:29:27;7.30;;;6.00;;
1679;SDS011;838;51.794;12.258;2023-04-12T01:31:58;8.67;;;5.50;;
1679;SDS011;838;51.794;12.258;2023-04-12T01:34:27;8.37;;;6.13;;
1679;SDS011;838;51.794;12.258;2023-04-12T01:36:55;8.50;;;5.77;;
1679;SDS011;838;51.794;12.258;2023-04-12T01:39:22;8.83;;;6.30;;
1679;SDS011;838;51.794;12.258;2023-04-12T01:41:48;8.83;;;6.10;;
1679;SDS011;838;51.794;12.258;2023-04-12T01:44:15;6.70;;;5.60;;
1679;SDS011;838;51.794;12.258;2023-04-12T01:46:44;8.07;;;6.50;;
1679;SDS011;838;51.794;12.258;2023-04-12T01:49:11;10.27;;;6.30;;
1679;SDS011;838;51.794;12.258;2023-04-12T01:51:47;8.03;;;6.13;;
1679;SDS011;838;51.794;12.258;2023-04-12T01:54:32;8.80;;;6.33;;
1679;SDS011;838;51.794;12.258;2023-04-12T01:57:02;9.70;;;6.23;;
1679;SDS011;838;51.794;12.258;2023-04-12T01:59:47;9.27;;;5.67;;
1679;SDS011;838;51.794;12.258;2023-04-12T02:02:14;9.30;;;6.57;;
1679;SDS011;838;51.794;12.258;2023-04-12T02:04:41;8.87;;;6.50;;
1679;SDS011;838;51.794;12.258;2023-04-12T02:07:07;7.50;;;5.30;;
1679;SDS011;838;51.794;12.258;2023-04-12T02:09:36;7.77;;;6.43;;
1679;SDS011;838;51.794;12.258;2023-04-12T02:12:04;8.53;;;6.33;;
1679;SDS011;838;51.794;12.258;2023-04-12T02:14:31;11.57;;;6.77;;
1679;SDS011;838;51.794;12.258;2023-04-12T02:16:56;8.73;;;6.17;;
1679;SDS011;838;51.794;12.258;2023-04-12T02:19:23;7.43;;;5.93;;
1679;SDS011;838;51.794;12.258;2023-04-12T02:21:49;9.43;;;6.30;;
1679;SDS011;838;51.794;12.258;2023-04-12T02:24:16;8.40;;;6.07;;
1679;SDS011;838;51.794;12.258;2023-04-12T02:26:41;11.90;;;7.13;;
1679;SDS011;838;51.794;12.258;2023-04-12T02:29:07;8.60;;;7.00;;
1679;SDS011;838;51.794;12.258;2023-04-12T02:31:34;11.80;;;6.67;;
1679;SDS011;838;51.794;12.258;2023-04-12T02:34:02;7.93;;;6.60;;
1679;SDS011;838;51.794;12.258;2023-04-12T02:36:29;9.87;;;6.73;;
1679;SDS011;838;51.794;12.258;2023-04-12T02:38:54;9.60;;;7.10;;
1679;SDS011;838;51.794;12.258;2023-04-12T02:41:21;9.23;;;6.43;;
1679;SDS011;838;51.794;12.258;2023-04-12T02:43:47;11.73;;;6.40;;
1679;SDS011;838;51.794;12.258;2023-04-12T02:46:14;8.07;;;6.70;;
1679;SDS011;838;51.794;12.258;2023-04-12T02:48:43;10.73;;;7.50;;
1679;SDS011;838;51.794;12.258;2023-04-12T02:51:10;9.90;;;7.47;;
1679;SDS011;838;51.794;12.258;2023-04-12T02:53:36;7.70;;;6.20;;
1679;SDS011;838;51.794;12.258;2023-04-12T02:56:04;8.33;;;6.20;;
1679;SDS011;838;51.794;12.258;2023-04-12T02:58:32;7.37;;;5.50;;
1679;SDS011;838;51.794;12.258;2023-04-12T03:01:01;8.93;;;5.13;;
1679;SDS011;838;51.794;12.258;2023-04-12T03:03:31;6.80;;;5.47;;
1679;SDS011;838;51.794;12.258;2023-04-12T03:05:58;8.60;;;5.73;;
1679;SDS011;838;51.794;12.258;2023-04-12T03:08:24;8.83;;;6.60;;
1679;SDS011;838;51.794;12.258;2023-04-12T03:10:50;9.00;;;5.57;;
1679;SDS011;838;51.794;12.258;2023-04-12T03:13:15;7.43;;;5.53;;
1679;SDS011;838;51.794;12.258;2023-04-12T03:15:41;8.00;;;5.73;;
1679;SDS011;838;51.794;12.258;2023-04-12T03:18:09;6.20;;;4.90;;
1679;SDS011;838;51.794;12.258;2023-04-12T03:20:36;7.53;;;5.87;;
1679;SDS011;838;51.794;12.258;2023-04-12T03:23:03;10.23;;;5.50;;
1679;SDS011;838;51.794;12.258;2023-04-12T03:25:29;8.60;;;5.57;;
1679;SDS011;838;51.794;12.258;2023-04-12T03:27:55;6.87;;;5.17;;
1679;SDS011;838;51.794;12.258;2023-04-12T03:30:21;8.97;;;5.83;;
1679;SDS011;838;51.794;12.258;2023-04-12T03:32:46;9.87;;;5.60;;
1679;SDS011;838;51.794;12.258;2023-04-12T03:35:12;9.90;;;5.33;;
1679;SDS011;838;51.794;12.258;2023-04-12T03:37:39;7.30;;;5.20;;
1679;SDS011;838;51.794;12.258;2023-04-12T03:40:06;8.20;;;5.50;;
1679;SDS011;838;51.794;12.258;2023-04-12T03:42:32;7.83;;;5.27;;
1679;SDS011;838;51.794;12.258;2023-04-12T03:44:58;7.40;;;5.80;;
1679;SDS011;838;51.794;12.258;2023-04-12T03:47:25;7.10;;;5.67;;
1679;SDS011;838;51.794;12.258;2023-04-12T03:49:53;7.37;;;5.40;;
1679;SDS011;838;51.794;12.258;2023-04-12T03:52:19;10.20;;;6.10;;
1679;SDS011;838;51.794;12.258;2023-04-12T03:54:45;8.57;;;5.97;;
1679;SDS011;838;51.794;12.258;2023-04-12T03:57:11;9.00;;;6.57;;
1679;SDS011;838;51.794;12.258;2023-04-12T03:59:36;8.87;;;6.07;;
1679;SDS011;838;51.794;12.258;2023-04-12T04:02:02;7.13;;;5.73;;
1679;SDS011;838;51.794;12.258;2023-04-12T04:04:28;9.40;;;6.30;;
1679;SDS011;838;51.794;12.258;2023-04-12T04:06:53;7.97;;;5.83;;
1679;SDS011;838;51.794;12.258;2023-04-12T04:09:19;8.17;;;5.90;;
1679;SDS011;838;51.794;12.258;2023-04-12T04:11:45;8.20;;;5.27;;
1679;SDS011;838;51.794;12.258;2023-04-12T04:14:11;9.30;;;5.37;;
1679;SDS011;838;51.794;12.258;2023-04-12T04:16:37;8.27;;;5.63;;
1679;SDS011;838;51.794;12.258;2023-04-12T04:19:03;6.40;;;4.83;;
1679;SDS011;838;51.794;12.258;2023-04-12T04:21:28;6.30;;;5.33;;
1679;SDS011;838;51.794;12.258;2023-04-12T04:23:54;7.33;;;5.47;;
1679;SDS011;838;51.794;12.258;2023-04-12T04:26:22;5.50;;;4.60;;
1679;SDS011;838;51.794;12.258;2023-04-12T04:28:56;8.07;;;5.30;;
1679;SDS011;838;51.794;12.258;2023-04-12T04:31:25;8.03;;;4.87;;
1679;SDS011;838;51.794;12.258;2023-04-12T04:33:52;6.60;;;5.07;;
1679;SDS011;838;51.794;12.258;2023-04-12T04:36:17;7.30;;;5.00;;
1679;SDS011;838;51.794;12.258;2023-04-12T04:38:43;5.70;;;4.80;;
1679;SDS011;838;51.794;12.258;2023-04-12T04:41:09;7.80;;;5.37;;
1679;SDS011;838;51.794;12.258;2023-04-12T04:43:36;6.90;;;5.43;;
1679;SDS011;838;51.794;12.258;2023-04-12T04:46:04;8.70;;;5.30;;
1679;SDS011;838;51.794;12.258;2023-04-12T04:48:29;8.77;;;5.07;;
1679;SDS011;838;51.794;12.258;2023-04-12T04:50:55;7.07;;;5.20;;
1679;SDS011;838;51.794;12.258;2023-04-12T04:53:21;10.00;;;4.90;;
1679;SDS011;838;51.794;12.258;2023-04-12T04:55:47;8.23;;;5.23;;
1679;SDS011;838;51.794;12.258;2023-04-12T04:58:13;9.57;;;4.87;;
1679;SDS011;838;51.794;12.258;2023-04-12T05:00:40;9.17;;;4.73;;
1679;SDS011;838;51.794;12.258;2023-04-12T05:03:08;6.97;;;4.20;;
1679;SDS011;838;51.794;12.258;2023-04-12T05:05:34;7.20;;;4.43;;
1679;SDS011;838;51.794;12.258;2023-04-12T05:08:00;5.90;;;4.20;;
1679;SDS011;838;51.794;12.258;2023-04-12T05:10:26;6.27;;;4.23;;
1679;SDS011;838;51.794;12.258;2023-04-12T05:12:52;4.83;;;3.73;;
1679;SDS011;838;51.794;12.258;2023-04-12T05:15:17;12.20;;;4.03;;
1679;SDS011;838;51.794;12.258;2023-04-12T05:17:44;8.30;;;3.77;;
1679;SDS011;838;51.794;12.258;2023-04-12T05:20:10;9.97;;;3.53;;
1679;SDS011;838;51.794;12.258;2023-04-12T05:22:36;8.13;;;3.80;;
1679;SDS011;838;51.794;12.258;2023-04-12T05:25:01;5.13;;;3.90;;
1679;SDS011;838;51.794;12.258;2023-04-12T05:27:28;5.13;;;3.60;;
1679;SDS011;838;51.794;12.258;2023-04-12T05:29:57;7.27;;;3.30;;
1679;SDS011;838;51.794;12.258;2023-04-12T05:32:24;6.53;;;3.80;;
1679;SDS011;838;51.794;12.258;2023-04-12T05:34:50;5.20;;;3.50;;
1679;SDS011;838;51.794;12.258;2023-04-12T05:37:16;6.60;;;3.80;;
1679;SDS011;838;51.794;12.258;2023-04-12T05:39:42;7.03;;;3.60;;
1679;SDS011;838;51.794;12.258;2023-04-12T05:42:08;6.80;;;3.83;;
1679;SDS011;838;51.794;12.258;2023-04-12T05:44:34;6.70;;;3.60;;
1679;SDS011;838;51.794;12.258;2023-04-12T05:47:03;7.57;;;4.00;;
1679;SDS011;838;51.794;12.258;2023-04-12T05:49:29;6.40;;;4.30;;
1679;SDS011;838;51.794;12.258;2023-04-12T05:51:57;7.97;;;3.40;;
1679;SDS011;838;51.794;12.258;2023-04-12T05:54:23;5.67;;;3.33;;
1679;SDS011;838;51.794;12.258;2023-04-12T05:56:49;5.90;;;3.83;;
1679;SDS011;838;51.794;12.258;2023-04-12T05:59:19;6.50;;;3.23;;
1679;SDS011;838;51.794;12.258;2023-04-12T06:01:44;4.33;;;2.93;;
1679;SDS011;838;51.794;12.258;2023-04-12T06:04:10;4.13;;;2.60;;
1679;SDS011;838;51.794;12.258;2023-04-12T06:06:36;4.53;;;2.70;;
1679;SDS011;838;51.794;12.258;2023-04-12T06:09:02;6.33;;;2.50;;
1679;SDS011;838;51.794;12.258;2023-04-12T06:11:29;5.53;;;2.80;;
1679;SDS011;838;51.794;12.258;2023-04-12T06:13:57;6.50;;;2.90;;
1679;SDS011;838;51.794;12.258;2023-04-12T06:16:24;5.33;;;2.97;;
1679;SDS011;838;51.794;12.258;2023-04-12T06:18:50;5.70;;;2.83;;
1679;SDS011;838;51.794;12.258;2023-04-12T06:21:17;4.43;;;2.40;;
1679;SDS011;838;51.794;12.258;2023-04-12T06:23:43;6.10;;;3.30;;
1679;SDS011;838;51.794;12.258;2023-04-12T06:26:08;3.57;;;2.27;;
1679;SDS011;838;51.794;12.258;2023-04-12T06:28:34;6.43;;;2.77;;
1679;SDS011;838;51.794;12.258;2023-04-12T06:31:00;9.63;;;2.73;;
1679;SDS011;838;51.794;12.258;2023-04-12T06:33:25;5.13;;;2.47;;
1679;SDS011;838;51.794;12.258;2023-04-12T06:35:51;4.10;;;2.53;;
1679;SDS011;838;51.794;12.258;2023-04-12T06:38:17;6.90;;;2.57;;
1679;SDS011;838;51.794;12.258;2023-04-12T06:40:43;4.83;;;2.23;;
1679;SDS011;838;51.794;12.258;2023-04-12T06:43:09;4.17;;;2.37;;
1679;SDS011;838;51.794;12.258;2023-04-12T06:45:36;7.27;;;2.50;;
1679;SDS011;838;51.794;12.258;2023-04-12T06:48:01;5.00;;;2.13;;
1679;SDS011;838;51.794;12.258;2023-04-12T06:50:27;4.80;;;2.43;;
1679;SDS011;838;51.794;12.258;2023-04-12T06:52:53;4.20;;;2.20;;
1679;SDS011;838;51.794;12.258;2023-04-12T06:55:18;9.60;;;2.00;;
1679;SDS011;838;51.794;12.258;2023-04-12T06:57:45;4.63;;;2.37;;
1679;SDS011;838;51.794;12.258;2023-04-12T07:00:11;3.50;;;2.03;;
1679;SDS011;838;51.794;12.258;2023-04-12T07:02:37;4.43;;;3.13;;
1679;SDS011;838;51.794;12.258;2023-04-12T07:05:04;3.93;;;2.20;;
1679;SDS011;838;51.794;12.258;2023-04-12T07:07:30;3.90;;;2.20;;
1679;SDS011;838;51.794;12.258;2023-04-12T07:09:56;4.20;;;2.43;;
1679;SDS011;838;51.794;12.258;2023-04-12T07:12:21;5.40;;;2.87;;
1679;SDS011;838;51.794;12.258;2023-04-12T07:14:47;4.83;;;2.33;;
1679;SDS011;838;51.794;12.258;2023-04-12T07:17:13;3.40;;;2.30;;
1679;SDS011;838;51.794;12.258;2023-04-12T07:19:39;7.33;;;2.53;;
1679;SDS011;838;51.794;12.258;2023-04-12T07:22:06;3.80;;;2.10;;
1679;SDS011;838;51.794;12.258;2023-04-12T07:24:32;3.57;;;2.03;;
1679;SDS011;838;51.794;12.258;2023-04-12T07:26:57;3.17;;;2.00;;
1679;SDS011;838;51.794;12.258;2023-04-12T07:29:23;4.50;;;2.40;;
1679;SDS011;838;51.794;12.258;2023-04-12T07:31:49;5.70;;;2.60;;
1679;SDS011;838;51.794;12.258;2023-04-12T07:34:15;5.10;;;2.60;;
1679;SDS011;838;51.794;12.258;2023-04-12T07:36:41;5.43;;;1.90;;
1679;SDS011;838;51.794;12.258;2023-04-12T07:39:08;8.30;;;2.67;;
1679;SDS011;838;51.794;12.258;2023-04-12T07:41:36;3.57;;;2.20;;
1679;SDS011;838;51.794;12.258;2023-04-12T07:44:02;3.70;;;2.03;;
1679;SDS011;838;51.794;12.258;2023-04-12T07:46:29;5.33;;;2.17;;
1679;SDS011;838;51.794;12.258;2023-04-12T07:48:55;6.13;;;2.70;;
1679;SDS011;838;51.794;12.258;2023-04-12T07:51:20;3.60;;;2.50;;
1679;SDS011;838;51.794;12.258;2023-04-12T07:53:46;4.70;;;2.27;;
1679;SDS011;838;51.794;12.258;2023-04-12T07:56:15;4.23;;;2.40;;
1679;SDS011;838;51.794;12.258;2023-04-12T07:58:41;4.63;;;2.10;;
1679;SDS011;838;51.794;12.258;2023-04-12T08:01:07;5.57;;;2.47;;
1679;SDS011;838;51.794;12.258;2023-04-12T08:03:33;6.17;;;2.27;;
1679;SDS011;838;51.794;12.258;2023-04-12T08:05:58;6.50;;;2.40;;
1679;SDS011;838;51.794;12.258;2023-04-12T08:08:24;6.10;;;2.40;;
1679;SDS011;838;51.794;12.258;2023-04-12T08:10:50;3.90;;;1.70;;
1679;SDS011;838;51.794;12.258;2023-04-12T08:13:17;4.90;;;2.20;;
1679;SDS011;838;51.794;12.258;2023-04-12T08:15:42;5.37;;;2.50;;
1679;SDS011;838;51.794;12.258;2023-04-12T08:18:11;6.23;;;2.50;;
1679;SDS011;838;51.794;12.258;2023-04-12T08:20:36;4.80;;;2.40;;
1679;SDS011;838;51.794;12.258;2023-04-12T08:23:04;6.10;;;2.60;;
1679;SDS011;838;51.794;12.258;2023-04-12T08:25:30;3.80;;;2.00;;
1679;SDS011;838;51.794;12.258;2023-04-12T08:27:56;3.80;;;2.20;;
1679;SDS011;838;51.794;12.258;2023-04-12T08:30:22;4.90;;;2.53;;
1679;SDS011;838;51.794;12.258;2023-04-12T08:32:51;3.80;;;2.40;;
1679;SDS011;838;51.794;12.258;2023-04-12T08:35:17;4.13;;;2.13;;
1679;SDS011;838;51.794;12.258;2023-04-12T08:37:43;6.53;;;2.33;;
1679;SDS011;838;51.794;12.258;2023-04-12T08:40:09;3.90;;;2.17;;
1679;SDS011;838;51.794;12.258;2023-04-12T08:42:35;6.40;;;3.10;;
1679;SDS011;838;51.794;12.258;2023-04-12T08:45:05;6.50;;;2.43;;
1679;SDS011;838;51.794;12.258;2023-04-12T08:47:36;3.90;;;2.20;;
1679;SDS011;838;51.794;12.258;2023-04-12T08:50:02;4.30;;;2.17;;
1679;SDS011;838;51.794;12.258;2023-04-12T08:52:33;5.67;;;2.40;;
1679;SDS011;838;51.794;12.258;2023-04-12T08:55:06;4.77;;;1.97;;
1679;SDS011;838;51.794;12.258;2023-04-12T08:57:37;4.57;;;2.10;;
1679;SDS011;838;51.794;12.258;2023-04-12T09:00:06;4.60;;;2.00;;
1679;SDS011;838;51.794;12.258;2023-04-12T09:02:36;5.90;;;2.30;;
1679;SDS011;838;51.794;12.258;2023-04-12T09:05:02;6.20;;;2.27;;
1679;SDS011;838;51.794;12.258;2023-04-12T09:07:29;5.43;;;2.13;;
1679;SDS011;838;51.794;12.258;2023-04-12T09:09:56;2.80;;;1.50;;
1679;SDS011;838;51.794;12.258;2023-04-12T09:12:22;3.53;;;1.70;;
1679;SDS011;838;51.794;12.258;2023-04-12T09:15:05;3.37;;;1.53;;
1679;SDS011;838;51.794;12.258;2023-04-12T09:17:32;4.00;;;2.03;;
1679;SDS011;838;51.794;12.258;2023-04-12T09:20:00;4.53;;;2.30;;
1679;SDS011;838;51.794;12.258;2023-04-12T09:22:41;6.03;;;2.27;;
1679;SDS011;838;51.794;12.258;2023-04-12T09:25:11;4.30;;;1.90;;
1679;SDS011;838;51.794;12.258;2023-04-12T09:27:48;5.33;;;2.03;;
1679;SDS011;838;51.794;12.258;2023-04-12T09:30:15;6.07;;;2.23;;
1679;SDS011;838;51.794;12.258;2023-04-12T09:32:42;4.67;;;2.77;;
1679;SDS011;838;51.794;12.258;2023-04-12T09:35:08;3.73;;;1.90;;
1679;SDS011;838;51.794;12.258;2023-04-12T09:37:33;4.93;;;2.27;;
1679;SDS011;838;51.794;12.258;2023-04-12T09:40:00;3.53;;;1.70;;
1679;SDS011;838;51.794;12.258;2023-04-12T09:42:32;4.50;;;2.37;;
1679;SDS011;838;51.794;12.258;2023-04-12T09:44:59;5.90;;;2.23;;
1679;SDS011;838;51.794;12.258;2023-04-12T09:47:38;4.57;;;2.00;;
1679;SDS011;838;51.794;12.258;2023-04-12T09:50:05;5.60;;;2.33;;
1679;SDS011;838;51.794;12.258;2023-04-12T09:52:38;5.53;;;2.27;;
1679;SDS011;838;51.794;12.258;2023-04-12T09:55:07;4.67;;;2.00;;
1679;SDS011;838;51.794;12.258;2023-04-12T09:57:38;3.10;;;1.80;;
1679;SDS011;838;51.794;12.258;2023-04-12T10:00:06;3.53;;;2.03;;
1679;SDS011;838;51.794;12.258;2023-04-12T10:02:46;4.33;;;1.97;;
1679;SDS011;838;51.794;12.258;2023-04-12T10:05:17;5.47;;;1.90;;
1679;SDS011;838;51.794;12.258;2023-04-12T10:07:44;4.30;;;2.13;;
1679;SDS011;838;51.794;12.258;2023-04-12T10:10:12;6.63;;;2.30;;
1679;SDS011;838;51.794;12.258;2023-04-12T10:12:39;4.30;;;1.77;;
1679;SDS011;838;51.794;12.258;2023-04-12T10:15:06;10.87;;;2.40;;
1679;SDS011;838;51.794;12.258;2023-04-12T10:17:50;3.50;;;2.30;;
1679;SDS011;838;51.794;12.258;2023-04-12T10:20:17;4.43;;;2.03;;
1679;SDS011;838;51.794;12.258;2023-04-12T10:22:46;4.40;;;1.70;;
1679;SDS011;838;51.794;12.258;2023-04-12T10:25:13;5.87;;;2.33;;
1679;SDS011;838;51.794;12.258;2023-04-12T10:27:44;5.43;;;2.40;;
1679;SDS011;838;51.794;12.258;2023-04-12T10:32:47;5.57;;;1.70;;
1679;SDS011;838;51.794;12.258;2023-04-12T10:38:19;4.00;;;1.83;;
1679;SDS011;838;51.794;12.258;2023-04-12T10:43:43;3.10;;;1.43;;
1679;SDS011;838;51.794;12.258;2023-04-12T10:49:10;4.20;;;1.70;;
1679;SDS011;838;51.794;12.258;2023-04-12T10:51:37;7.90;;;1.73;;
1679;SDS011;838;51.794;12.258;2023-04-12T10:59:14;5.10;;;1.53;;
1679;SDS011;838;51.794;12.258;2023-04-12T11:01:41;4.50;;;1.70;;
1679;SDS011;838;51.794;12.258;2023-04-12T11:04:33;4.37;;;2.23;;
1679;SDS011;838;51.794;12.258;2023-04-12T11:07:00;7.20;;;2.50;;
1679;SDS011;838;51.794;12.258;2023-04-12T11:14:37;10.47;;;4.80;;
1679;SDS011;838;51.794;12.258;2023-04-12T11:19:40;7.03;;;2.30;;
1679;SDS011;838;51.794;12.258;2023-04-12T11:22:08;4.10;;;1.87;;
1679;SDS011;838;51.794;12.258;2023-04-12T11:24:42;9.93;;;1.60;;
1679;SDS011;838;51.794;12.258;2023-04-12T11:27:22;3.40;;;1.23;;
1679;SDS011;838;51.794;12.258;2023-04-12T11:29:50;4.27;;;1.30;;
1679;SDS011;838;51.794;12.258;2023-04-12T11:32:19;4.23;;;1.70;;
1679;SDS011;838;51.794;12.258;2023-04-12T11:34:47;5.60;;;2.17;;
1679;SDS011;838;51.794;12.258;2023-04-12T11:37:13;5.00;;;1.80;;
1679;SDS011;838;51.794;12.258;2023-04-12T11:39:42;3.33;;;1.77;;
1679;SDS011;838;51.794;12.258;2023-04-12T11:42:27;4.40;;;2.30;;
1679;SDS011;838;51.794;12.258;2023-04-12T11:44:53;4.87;;;1.77;;
1679;SDS011;838;51.794;12.258;2023-04-12T11:47:21;4.87;;;1.70;;
1679;SDS011;838;51.794;12.258;2023-04-12T11:49:48;3.53;;;1.50;;
1679;SDS011;838;51.794;12.258;2023-04-12T11:52:19;4.10;;;1.87;;
1679;SDS011;838;51.794;12.258;2023-04-12T11:54:47;3.80;;;2.00;;
1679;SDS011;838;51.794;12.258;2023-04-12T11:57:15;9.43;;;2.37;;
1679;SDS011;838;51.794;12.258;2023-04-12T11:59:44;4.90;;;1.67;;
1679;SDS011;838;51.794;12.258;2023-04-12T12:02:11;6.40;;;2.10;;
1679;SDS011;838;51.794;12.258;2023-04-12T12:04:38;6.37;;;1.90;;
1679;SDS011;838;51.794;12.258;2023-04-12T12:07:06;4.70;;;2.40;;
1679;SDS011;838;51.794;12.258;2023-04-12T12:09:32;3.73;;;1.93;;
1679;SDS011;838;51.794;12.258;2023-04-12T12:12:00;3.20;;;1.43;;
1679;SDS011;838;51.794;12.258;2023-04-12T12:14:27;4.10;;;1.60;;
1679;SDS011;838;51.794;12.258;2023-04-12T12:22:09;6.03;;;1.90;;
1679;SDS011;838;51.794;12.258;2023-04-12T12:24:36;4.57;;;1.93;;
1679;SDS011;838;51.794;12.258;2023-04-12T12:27:02;4.33;;;1.67;;
1679;SDS011;838;51.794;12.258;2023-04-12T12:29:37;4.93;;;1.80;;
1679;SDS011;838;51.794;12.258;2023-04-12T12:32:10;3.60;;;1.63;;
1679;SDS011;838;51.794;12.258;2023-04-12T12:34:38;6.70;;;1.93;;
1679;SDS011;838;51.794;12.258;2023-04-12T12:37:14;5.03;;;1.97;;
1679;SDS011;838;51.794;12.258;2023-04-12T12:42:46;3.10;;;1.60;;
1679;SDS011;838;51.794;12.258;2023-04-12T12:45:13;5.53;;;2.00;;
1679;SDS011;838;51.794;12.258;2023-04-12T12:47:52;3.30;;;1.80;;
1679;SDS011;838;51.794;12.258;2023-04-12T12:50:23;3.70;;;2.20;;
1679;SDS011;838;51.794;12.258;2023-04-12T12:52:53;4.10;;;2.20;;
1679;SDS011;838;51.794;12.258;2023-04-12T12:55:20;5.50;;;2.10;;
1679;SDS011;838;51.794;12.258;2023-04-12T12:57:47;5.37;;;2.20;;
1679;SDS011;838;51.794;12.258;2023-04-12T13:00:14;6.60;;;2.63;;
1679;SDS011;838;51.794;12.258;2023-04-12T13:02:41;6.37;;;3.63;;
1679;SDS011;838;51.794;12.258;2023-04-12T13:05:07;3.63;;;2.00;;
1679;SDS011;838;51.794;12.258;2023-04-12T13:07:34;5.43;;;2.53;;
1679;SDS011;838;51.794;12.258;2023-04-12T13:09:59;3.77;;;2.00;;
1679;SDS011;838;51.794;12.258;2023-04-12T13:12:36;4.53;;;2.90;;
1679;SDS011;838;51.794;12.258;2023-04-12T13:15:01;4.10;;;2.50;;
1679;SDS011;838;51.794;12.258;2023-04-12T13:17:28;4.90;;;2.10;;
1679;SDS011;838;51.794;12.258;2023-04-12T13:19:54;4.77;;;2.43;;
1679;SDS011;838;51.794;12.258;2023-04-12T13:22:20;5.40;;;2.30;;
1679;SDS011;838;51.794;12.258;2023-04-12T13:24:46;4.43;;;1.90;;
1679;SDS011;838;51.794;12.258;2023-04-12T13:27:12;4.90;;;2.23;;
1679;SDS011;838;51.794;12.258;2023-04-12T13:29:39;4.10;;;2.90;;
1679;SDS011;838;51.794;12.258;2023-04-12T13:32:04;6.37;;;2.67;;
1679;SDS011;838;51.794;12.258;2023-04-12T13:34:30;4.20;;;2.60;;
1679;SDS011;838;51.794;12.258;2023-04-12T13:36:56;5.97;;;3.00;;
1679;SDS011;838;51.794;12.258;2023-04-12T13:39:23;4.13;;;3.30;;
1679;SDS011;838;51.794;12.258;2023-04-12T13:41:49;6.00;;;2.63;;
1679;SDS011;838;51.794;12.258;2023-04-12T13:44:15;10.33;;;3.50;;
1679;SDS011;838;51.794;12.258;2023-04-12T13:46:41;4.40;;;2.53;;
1679;SDS011;838;51.794;12.258;2023-04-12T13:49:06;5.00;;;2.97;;
1679;SDS011;838;51.794;12.258;2023-04-12T13:51:32;4.80;;;3.23;;
1679;SDS011;838;51.794;12.258;2023-04-12T13:53:58;9.47;;;6.17;;
1679;SDS011;838;51.794;12.258;2023-04-12T13:56:24;4.33;;;2.70;;
1679;SDS011;838;51.794;12.258;2023-04-12T13:58:50;4.73;;;3.03;;
1679;SDS011;838;51.794;12.258;2023-04-12T14:01:17;4.27;;;2.50;;
1679;SDS011;838;51.794;12.258;2023-04-12T14:03:45;3.93;;;2.50;;
1679;SDS011;838;51.794;12.258;2023-04-12T14:06:12;4.67;;;2.40;;
1679;SDS011;838;51.794;12.258;2023-04-12T14:08:37;6.77;;;2.80;;
1679;SDS011;838;51.794;12.258;2023-04-12T14:11:03;4.40;;;2.30;;
1679;SDS011;838;51.794;12.258;2023-04-12T14:13:30;4.33;;;2.70;;
1679;SDS011;838;51.794;12.258;2023-04-12T14:15:56;4.00;;;2.77;;
1679;SDS011;838;51.794;12.258;2023-04-12T14:18:21;5.10;;;2.90;;
1679;SDS011;838;51.794;12.258;2023-04-12T14:20:48;4.80;;;3.20;;
1679;SDS011;838;51.794;12.258;2023-04-12T14:23:16;5.53;;;2.90;;
1679;SDS011;838;51.794;12.258;2023-04-12T14:25:43;5.80;;;4.27;;
1679;SDS011;838;51.794;12.258;2023-04-12T14:28:09;5.40;;;3.90;;
1679;SDS011;838;51.794;12.258;2023-04-12T14:30:40;5.37;;;3.63;;
1679;SDS011;838;51.794;12.258;2023-04-12T14:33:06;9.63;;;7.63;;
1679;SDS011;838;51.794;12.258;2023-04-12T14:35:32;6.50;;;5.20;;
1679;SDS011;838;51.794;12.258;2023-04-12T14:37:58;7.20;;;4.83;;
1679;SDS011;838;51.794;12.258;2023-04-12T14:40:23;4.70;;;2.97;;
1679;SDS011;838;51.794;12.258;2023-04-12T14:42:49;4.77;;;2.60;;
1679;SDS011;838;51.794;12.258;2023-04-12T14:45:15;4.80;;;3.20;;
1679;SDS011;838;51.794;12.258;2023-04-12T14:47:42;4.53;;;2.93;;
1679;SDS011;838;51.794;12.258;2023-04-12T14:50:08;4.40;;;2.80;;
1679;SDS011;838;51.794;12.258;2023-04-12T14:52:34;4.60;;;2.80;;
1679;SDS011;838;51.794;12.258;2023-04-12T14:55:00;4.60;;;2.80;;
1679;SDS011;838;51.794;12.258;2023-04-12T14:57:26;4.40;;;3.00;;
1679;SDS011;838;51.794;12.258;2023-04-12T14:59:52;4.93;;;2.60;;
1679;SDS011;838;51.794;12.258;2023-04-12T15:02:17;4.70;;;2.60;;
1679;SDS011;838;51.794;12.258;2023-04-12T15:04:46;4.03;;;2.50;;
1679;SDS011;838;51.794;12.258;2023-04-12T15:07:14;5.50;;;2.63;;
1679;SDS011;838;51.794;12.258;2023-04-12T15:09:40;5.00;;;2.53;;
1679;SDS011;838;51.794;12.258;2023-04-12T15:12:08;3.70;;;2.30;;
1679;SDS011;838;51.794;12.258;2023-04-12T15:14:34;4.13;;;3.07;;
1679;SDS011;838;51.794;12.258;2023-04-12T15:17:00;7.03;;;2.70;;
1679;SDS011;838;51.794;12.258;2023-04-12T15:19:26;5.47;;;3.37;;
1679;SDS011;838;51.794;12.258;2023-04-12T15:21:52;6.40;;;3.17;;
1679;SDS011;838;51.794;12.258;2023-04-12T15:24:19;5.70;;;3.50;;
1679;SDS011;838;51.794;12.258;2023-04-12T15:26:49;5.47;;;3.70;;
1679;SDS011;838;51.794;12.258;2023-04-12T15:29:17;7.03;;;3.70;;
1679;SDS011;838;51.794;12.258;2023-04-12T15:31:44;3.90;;;3.13;;
1679;SDS011;838;51.794;12.258;2023-04-12T15:34:10;7.50;;;3.03;;
1679;SDS011;838;51.794;12.258;2023-04-12T15:36:37;4.80;;;2.87;;
1679;SDS011;838;51.794;12.258;2023-04-12T15:39:07;4.50;;;3.00;;
1679;SDS011;838;51.794;12.258;2023-04-12T15:41:34;4.53;;;3.43;;
1679;SDS011;838;51.794;12.258;2023-04-12T15:44:05;4.90;;;2.60;;
1679;SDS011;838;51.794;12.258;2023-04-12T15:46:32;3.50;;;1.97;;
1679;SDS011;838;51.794;12.258;2023-04-12T15:48:59;5.90;;;2.90;;
1679;SDS011;838;51.794;12.258;2023-04-12T15:51:26;5.40;;;2.80;;
1679;SDS011;838;51.794;12.258;2023-04-12T15:53:52;5.20;;;2.97;;
1679;SDS011;838;51.794;12.258;2023-04-12T15:56:18;3.43;;;2.43;;
1679;SDS011;838;51.794;12.258;2023-04-12T15:58:48;3.40;;;2.33;;